Gu Achi, AZ

5:24 AM MST on October 02, 2014 (GMT -0700)
Tucson International | Change Station
CLOSE
Current Station
Airport
Location: Tucson,
Elevation: 2556 ft
Nearby Weather Stations

Elev 2556 ft 32.13 °N, 110.96 °W | Updated 31 minutes ago

Clear
Clear
62 °F
Feels Like 62 °F
N
9
Wind Variable Wind from South

Today
High -- | Low -- °F
--% Chance of Precip.
Yesterday
High -- | Low -- °F
Precip. -- in
6:22 AM 6:11 PM
First Quarter, 58% visible
Pressure 29.90 in
Visibility 10.0 miles
Clouds Clear
Dew Point 44 °F
Humidity 52%
Rainfall 0.00 in
Snow Depth 0 in , 0 in , 0 in
UV 0 out of 12
Pollen 6.20 out of 12
Air Quality Not available.
Flu Activity Not available.
METAR KTUS 021153Z AUTO 18008KT 10SM CLR 17/07 A3001 RMK AO2 SLP123 T01670067 10211 20167 53011

More Conditions Fewer Conditions

Pressure 29.90 in
Visibility 10.0 miles
Clouds Clear
Dew Point 44 °F
Humidity 52%
Rainfall 0.00 in
Snow Depth 0 in , 0 in , 0 in
UV 0 out of 12
Pollen 6.20 out of 12
Air Quality Not available.
Flu Activity Not available.
METAR KTUS 021153Z AUTO 18008KT 10SM CLR 17/07 A3001 RMK AO2 SLP123 T01670067 10211 20167 53011

More Conditions Fewer Conditions

10-Day Weather Forecast

Almanac

Astronomy

Oct. 02, 2014 Rise Set
Actual Time 6:22 AM MST 6:11 PM MST
Civil Twilight 5:57 AM MST 6:35 PM MST
Nautical Twilight 5:29 AM MST 7:03 PM MST
Astronomical Twilight 5:01 AM MST 7:31 PM MST
Moon 2:02 PM MST 12:02 AM MST
Length of Visible Light 12h 37m
Length of Day
11h 48m
Tomorrow will be 1m 55s shorter.
First Quarter, 58% of the Moon is Illuminated
Today
First Quarter
Oct 8
Full
Oct 15
Last Quarter
Oct 23
New
Oct 30
First Quarter

Today's Extremes

State Highs State Lows

Community

WunderPhotos

Upload Photos

1,758,223 photos uploaded!

WunderBlogs® & News

Nearby

Snow Depth

Station Depth Elevation
Coronado Trail 0 in 8400 ft
Maverick Fork 0 in 9200 ft
Heber 0 in 7640 ft
Happy Jack 0 in 7630 ft
Snowslide Canyon 1 in 9730 ft

Earthquake Activity

City Distance Mag. Time & Date
No recent earthquake activity has been reported nearby.
Minimum magnitude displayed is 2.5.

Coastal Water Temperatures

Place Temperature
No Stations Reporting

Nearby Weather Stations